createdAt,value
2018-12-17T00:00:52.740Z,2.00
2018-12-17T00:03:21.699Z,2.00
2018-12-17T00:05:50.676Z,2.00
2018-12-17T00:08:19.667Z,2.00
2018-12-17T00:10:48.640Z,2.00
2018-12-17T00:13:17.599Z,2.00
2018-12-17T00:15:46.583Z,2.00
2018-12-17T00:18:16.031Z,2.00
2018-12-17T00:20:44.982Z,2.00
2018-12-17T00:23:13.954Z,2.10
2018-12-17T00:25:42.914Z,2.10
2018-12-17T00:28:11.895Z,2.10
2018-12-17T00:30:40.867Z,2.10
2018-12-17T00:33:09.851Z,2.10
2018-12-17T00:35:39.239Z,2.10
2018-12-17T00:38:08.143Z,2.10
2018-12-17T00:40:37.115Z,2.10
2018-12-17T00:43:06.099Z,2.00
2018-12-17T00:45:35.180Z,2.00
2018-12-17T00:48:04.251Z,2.00
2018-12-17T00:50:33.139Z,2.10
2018-12-17T00:53:02.118Z,2.00
2018-12-17T00:55:31.086Z,2.00
2018-12-17T00:58:00.259Z,2.00
2018-12-17T01:00:29.231Z,2.10
2018-12-17T01:02:58.196Z,2.00
2018-12-17T01:05:27.210Z,2.10
2018-12-17T01:07:56.171Z,2.10
2018-12-17T01:10:25.148Z,2.10
2018-12-17T01:12:54.088Z,2.00
2018-12-17T01:15:23.174Z,2.10
2018-12-17T01:17:52.127Z,2.10
2018-12-17T01:20:21.048Z,2.10
2018-12-17T01:22:50.008Z,2.10
2018-12-17T01:25:18.975Z,2.10
2018-12-17T01:27:47.879Z,2.10
2018-12-17T01:30:16.796Z,2.10
2018-12-17T01:32:45.779Z,2.10
2018-12-17T01:35:14.783Z,2.10
2018-12-17T01:37:43.691Z,2.10
2018-12-17T01:40:12.647Z,2.10
2018-12-17T01:42:41.759Z,2.10
2018-12-17T01:45:10.725Z,2.20
2018-12-17T01:47:39.828Z,2.20
2018-12-17T01:50:08.889Z,2.20
2018-12-17T01:52:37.848Z,2.20
2018-12-17T01:55:06.823Z,2.20
2018-12-17T01:57:35.813Z,2.20
2018-12-17T02:00:05.391Z,2.20
2018-12-17T02:02:34.296Z,2.30
2018-12-17T02:05:03.795Z,2.30
2018-12-17T02:07:32.775Z,2.30
2018-12-17T02:10:01.717Z,2.30
2018-12-17T02:12:30.665Z,2.30
2018-12-17T02:14:59.618Z,2.30
2018-12-17T02:17:28.535Z,2.20
2018-12-17T02:19:57.834Z,2.20
2018-12-17T02:22:26.800Z,2.20
2018-12-17T02:24:55.707Z,2.20
2018-12-17T02:27:24.603Z,2.20
2018-12-17T02:29:53.542Z,2.20
2018-12-17T02:32:22.528Z,2.20
2018-12-17T02:34:51.495Z,2.20
2018-12-17T02:37:20.504Z,2.30
2018-12-17T02:39:49.591Z,2.30
2018-12-17T02:42:18.579Z,2.20
2018-12-17T02:44:47.571Z,2.30
2018-12-17T02:47:16.559Z,2.20
2018-12-17T02:49:45.647Z,2.20
2018-12-17T02:52:14.548Z,2.20
2018-12-17T02:54:43.605Z,2.30
2018-12-17T02:57:12.715Z,2.30
2018-12-17T02:59:41.619Z,2.30
2018-12-17T03:02:10.584Z,2.30
2018-12-17T03:04:39.703Z,2.20
2018-12-17T03:07:08.903Z,2.20
2018-12-17T03:09:37.905Z,2.20
2018-12-17T03:12:06.801Z,2.20
2018-12-17T03:14:35.695Z,2.30
2018-12-17T03:17:05.810Z,2.20
2018-12-17T03:19:34.776Z,2.30
2018-12-17T03:22:03.795Z,2.30
2018-12-17T03:24:32.760Z,2.30
2018-12-17T03:27:02.241Z,2.30
2018-12-17T03:29:31.200Z,2.30
2018-12-17T03:32:00.234Z,2.30
2018-12-17T03:34:29.128Z,2.30
2018-12-17T03:36:58.091Z,2.30
2018-12-17T03:39:26.994Z,2.30
2018-12-17T03:41:55.958Z,2.30
2018-12-17T03:44:24.924Z,2.30
2018-12-17T03:46:53.891Z,2.30
2018-12-17T03:49:22.876Z,2.30
2018-12-17T03:51:51.861Z,2.20
2018-12-17T03:54:21.051Z,2.20
2018-12-17T03:56:50.151Z,2.10
2018-12-17T03:59:19.356Z,2.10
2018-12-17T04:01:48.250Z,2.10
2018-12-17T04:04:17.236Z,2.00
2018-12-17T04:06:46.416Z,2.00
2018-12-17T04:09:15.536Z,2.00
2018-12-17T04:11:44.642Z,2.00
2018-12-17T04:14:13.600Z,2.00
2018-12-17T04:16:42.515Z,2.00
2018-12-17T04:19:11.412Z,2.00
2018-12-17T04:21:40.375Z,2.00
2018-12-17T04:24:09.268Z,1.90
2018-12-17T04:26:38.240Z,1.90
2018-12-17T04:29:07.347Z,2.00
2018-12-17T04:31:36.496Z,1.90
2018-12-17T04:34:05.687Z,1.90
2018-12-17T04:36:34.604Z,1.70
2018-12-17T04:39:05.267Z,1.70
2018-12-17T04:41:34.525Z,1.60
2018-12-17T04:44:04.023Z,1.50
2018-12-17T04:46:33.259Z,1.40
2018-12-17T04:49:02.461Z,1.40
2018-12-17T04:51:31.715Z,1.40
2018-12-17T04:54:00.695Z,1.40
2018-12-17T04:56:29.671Z,1.40
2018-12-17T04:58:58.563Z,1.50
2018-12-17T05:01:27.529Z,1.50
2018-12-17T05:03:56.535Z,1.50
2018-12-17T05:06:25.495Z,1.50
2018-12-17T05:08:54.455Z,1.60
2018-12-17T05:11:23.587Z,1.50
2018-12-17T05:13:52.787Z,1.50
2018-12-17T05:16:21.787Z,1.40
2018-12-17T05:18:50.963Z,1.40
2018-12-17T05:21:19.918Z,1.30
2018-12-17T05:23:49.083Z,1.30
2018-12-17T05:26:18.195Z,1.40
2018-12-17T05:28:47.410Z,1.40
2018-12-17T05:31:16.328Z,1.40
2018-12-17T05:33:45.340Z,1.30
2018-12-17T05:36:14.399Z,1.30
2018-12-17T05:38:43.291Z,1.30
2018-12-17T05:41:12.188Z,1.40
2018-12-17T05:43:41.168Z,1.40
2018-12-17T05:46:10.131Z,1.40
2018-12-17T05:48:39.120Z,1.40
2018-12-17T05:51:08.020Z,1.30
2018-12-17T05:53:36.996Z,1.30
2018-12-17T05:56:05.919Z,1.30
2018-12-17T05:58:34.816Z,1.20
2018-12-17T06:01:03.919Z,1.20
2018-12-17T06:03:32.903Z,1.20
2018-12-17T06:06:01.835Z,1.10
2018-12-17T06:08:30.927Z,1.10
2018-12-17T06:10:59.882Z,1.10
2018-12-17T06:13:28.944Z,1.20
2018-12-17T06:15:57.915Z,1.30
2018-12-17T06:18:26.875Z,1.40
2018-12-17T06:20:56.179Z,1.50
2018-12-17T06:23:25.260Z,1.50
2018-12-17T06:25:54.227Z,1.50
2018-12-17T06:28:23.205Z,1.60
2018-12-17T06:30:52.327Z,1.50
2018-12-17T06:33:21.504Z,1.40
2018-12-17T06:35:50.694Z,1.40
2018-12-17T06:38:19.663Z,1.40
2018-12-17T06:40:48.639Z,1.20
2018-12-17T06:43:17.760Z,1.20
2018-12-17T06:45:46.663Z,1.10
2018-12-17T06:48:17.176Z,1.10
2018-12-17T06:50:46.572Z,1.10
2018-12-17T06:53:15.523Z,1.10
2018-12-17T06:55:44.639Z,1.00
2018-12-17T06:58:14.108Z,1.00
2018-12-17T07:00:43.085Z,1.00
2018-12-17T07:03:12.288Z,1.00
2018-12-17T07:05:41.231Z,0.90
2018-12-17T07:08:10.792Z,0.80
2018-12-17T07:10:40.059Z,0.70
2018-12-17T07:13:09.090Z,0.70
2018-12-17T07:15:37.984Z,0.70
2018-12-17T07:18:07.376Z,0.70
2018-12-17T07:20:36.335Z,0.70
2018-12-17T07:23:05.303Z,0.70
2018-12-17T07:25:34.247Z,0.70
2018-12-17T07:28:03.211Z,0.70
2018-12-17T07:30:32.997Z,0.70
2018-12-17T07:33:01.985Z,0.70
2018-12-17T07:35:31.489Z,0.60
2018-12-17T07:38:00.655Z,0.60
2018-12-17T07:40:29.686Z,0.70
2018-12-17T07:42:59.011Z,0.70
2018-12-17T07:45:28.189Z,0.90
2018-12-17T07:47:57.186Z,0.90
2018-12-17T07:50:26.124Z,1.00
2018-12-17T07:52:55.894Z,1.10
2018-12-17T07:55:24.993Z,1.10
2018-12-17T07:57:54.602Z,1.10
2018-12-17T08:00:23.603Z,1.10
2018-12-17T08:02:52.596Z,1.10
2018-12-17T08:05:21.796Z,1.00
2018-12-17T08:07:51.204Z,1.10
2018-12-17T08:10:20.471Z,1.10
2018-12-17T08:12:49.360Z,1.10
2018-12-17T08:15:18.471Z,1.10
2018-12-17T08:17:49.928Z,1.10
2018-12-17T08:20:19.332Z,1.10
2018-12-17T08:22:48.780Z,1.10
2018-12-17T08:25:17.783Z,1.20
2018-12-17T08:27:46.875Z,1.20
2018-12-17T08:30:15.888Z,1.20
2018-12-17T08:32:44.851Z,1.20
2018-12-17T08:35:13.816Z,1.20
2018-12-17T08:37:42.916Z,1.30
2018-12-17T08:40:12.000Z,1.30
2018-12-17T08:42:41.100Z,1.40
2018-12-17T08:45:10.187Z,1.40
2018-12-17T08:47:39.167Z,1.50
2018-12-17T08:50:08.343Z,1.50
2018-12-17T08:52:37.234Z,1.60
2018-12-17T08:55:06.410Z,1.60
2018-12-17T08:57:38.113Z,1.60
2018-12-17T09:00:11.107Z,1.60
2018-12-17T09:02:40.351Z,1.70
2018-12-17T09:05:09.365Z,1.80
2018-12-17T09:07:38.319Z,1.80
2018-12-17T09:10:07.403Z,1.80
2018-12-17T09:12:36.387Z,1.80
2018-12-17T09:15:05.848Z,1.70
2018-12-17T09:17:35.495Z,1.70
2018-12-17T09:20:06.475Z,1.80
2018-12-17T09:22:35.476Z,1.80
2018-12-17T09:25:05.227Z,1.80
2018-12-17T09:27:34.239Z,1.80
2018-12-17T09:30:05.411Z,1.80
2018-12-17T09:32:34.316Z,1.80
2018-12-17T09:35:04.004Z,1.80
2018-12-17T09:37:33.604Z,1.80
2018-12-17T09:40:03.205Z,1.90
2018-12-17T09:42:32.287Z,1.90
2018-12-17T09:45:01.527Z,1.90
2018-12-17T09:47:30.498Z,1.90
2018-12-17T09:49:59.467Z,1.90
2018-12-17T09:52:28.576Z,1.90
2018-12-17T09:54:57.531Z,1.90
2018-12-17T09:57:26.635Z,1.90
2018-12-17T09:59:55.623Z,1.70
2018-12-17T10:02:24.816Z,1.70
2018-12-17T10:04:53.923Z,1.50
2018-12-17T10:07:23.092Z,1.50
2018-12-17T10:09:51.995Z,1.40
2018-12-17T10:12:21.085Z,1.50
2018-12-17T10:14:51.211Z,1.50
2018-12-17T10:17:20.322Z,1.50
2018-12-17T10:19:49.287Z,1.50
2018-12-17T10:22:18.259Z,1.50
2018-12-17T10:24:47.244Z,1.50
2018-12-17T10:27:16.457Z,1.40
2018-12-17T10:29:45.755Z,1.40
2018-12-17T10:32:14.708Z,1.40
2018-12-17T10:34:43.759Z,1.20
2018-12-17T10:37:13.269Z,1.30
2018-12-17T10:39:42.351Z,1.20
2018-12-17T10:42:11.463Z,1.20
2018-12-17T10:44:40.411Z,1.20
2018-12-17T10:47:09.381Z,1.10
2018-12-17T10:49:38.567Z,1.20
2018-12-17T10:52:07.760Z,1.20
2018-12-17T10:54:36.854Z,1.10
2018-12-17T10:57:06.053Z,1.10
2018-12-17T10:59:35.127Z,1.10
2018-12-17T11:02:06.807Z,1.20
2018-12-17T11:04:37.884Z,1.10
2018-12-17T11:07:07.695Z,1.10
2018-12-17T11:09:36.899Z,1.10
2018-12-17T11:12:06.003Z,1.10
2018-12-17T11:14:34.907Z,1.10
2018-12-17T11:17:04.236Z,1.10
2018-12-17T11:19:33.259Z,1.10
2018-12-17T11:22:02.203Z,1.10
2018-12-17T11:24:31.187Z,1.10
2018-12-17T11:27:00.099Z,1.00
2018-12-17T11:29:29.070Z,1.00
2018-12-17T11:31:58.139Z,1.00
2018-12-17T11:34:27.107Z,1.00
2018-12-17T11:36:56.071Z,1.00
2018-12-17T11:39:25.180Z,1.00
2018-12-17T11:41:54.252Z,1.00
2018-12-17T11:44:23.315Z,1.10
2018-12-17T11:46:52.312Z,1.20
2018-12-17T11:49:21.372Z,1.20
2018-12-17T11:51:50.405Z,1.20
2018-12-17T11:54:19.292Z,1.30
2018-12-17T11:59:44.333Z,1.30
2018-12-17T12:02:13.373Z,1.20
2018-12-17T12:04:42.327Z,1.20
2018-12-17T12:07:11.359Z,1.30
2018-12-17T12:09:40.541Z,1.30
2018-12-17T12:12:09.453Z,1.30
2018-12-17T12:14:38.359Z,1.40
2018-12-17T12:17:07.482Z,1.40
2018-12-17T12:19:36.691Z,1.40
2018-12-17T12:22:05.596Z,1.40
2018-12-17T12:24:34.568Z,1.40
2018-12-17T12:27:03.947Z,1.40
2018-12-17T12:29:32.916Z,1.40
2018-12-17T12:32:01.889Z,1.40
2018-12-17T12:34:30.857Z,1.40
2018-12-17T12:36:59.831Z,1.50
2018-12-17T12:39:28.799Z,1.50
2018-12-17T12:41:57.742Z,1.50
2018-12-17T12:44:26.964Z,1.50
2018-12-17T12:46:56.003Z,1.50
2018-12-17T12:49:24.900Z,1.50
2018-12-17T12:51:53.803Z,1.60
2018-12-17T12:54:22.903Z,1.60
2018-12-17T12:56:51.795Z,1.60
2018-12-17T12:59:20.692Z,1.60
2018-12-17T13:01:49.611Z,1.60
2018-12-17T13:04:18.606Z,1.60
2018-12-17T13:06:47.594Z,1.50
2018-12-17T13:09:18.539Z,1.50
2018-12-17T13:11:47.455Z,1.50
2018-12-17T13:14:16.414Z,1.60
2018-12-17T13:16:45.597Z,1.60
2018-12-17T13:19:14.579Z,1.60
2018-12-17T13:21:43.676Z,1.50
2018-12-17T13:24:12.779Z,1.50
2018-12-17T13:26:41.710Z,1.40
2018-12-17T13:29:10.680Z,1.40
2018-12-17T13:31:39.571Z,1.50
2018-12-17T13:34:08.583Z,1.40
2018-12-17T13:36:37.539Z,1.50
2018-12-17T13:39:06.795Z,1.40
2018-12-17T13:41:36.003Z,1.40
2018-12-17T13:44:04.907Z,1.40
2018-12-17T13:46:34.015Z,1.40
2018-12-17T13:49:03.087Z,1.40
2018-12-17T13:51:33.167Z,1.40
2018-12-17T13:54:02.140Z,1.40
2018-12-17T13:56:31.107Z,1.40
2018-12-17T13:59:00.307Z,1.40
2018-12-17T14:01:29.207Z,1.40
2018-12-17T14:03:58.115Z,1.40
2018-12-17T14:06:27.084Z,1.40
2018-12-17T14:08:56.067Z,1.40
2018-12-17T14:11:24.967Z,1.40
2018-12-17T14:13:53.859Z,1.40
2018-12-17T14:16:24.759Z,1.40
2018-12-17T14:18:59.851Z,1.50
2018-12-17T14:21:34.503Z,1.50
2018-12-17T14:24:03.553Z,1.40
2018-12-17T14:26:32.725Z,1.40
2018-12-17T14:29:01.832Z,1.40
2018-12-17T14:31:30.963Z,1.40
2018-12-17T14:33:59.923Z,1.40
2018-12-17T14:36:28.893Z,1.40
2018-12-17T14:38:57.988Z,1.40
2018-12-17T14:41:27.063Z,1.40
2018-12-17T14:43:57.972Z,1.30
2018-12-17T14:46:28.936Z,1.30
2018-12-17T14:48:57.910Z,1.30
2018-12-17T14:51:26.801Z,1.20
2018-12-17T14:53:55.911Z,1.20
2018-12-17T14:56:24.811Z,1.10
2018-12-17T14:58:54.439Z,1.10
2018-12-17T15:01:23.427Z,1.10
2018-12-17T15:03:52.395Z,1.00
2018-12-17T15:06:21.487Z,1.00
2018-12-17T15:08:50.451Z,1.00
2018-12-17T15:11:19.497Z,0.90
2018-12-17T15:13:48.875Z,0.80
2018-12-17T15:16:17.994Z,0.90
2018-12-17T15:18:47.043Z,0.80
2018-12-17T15:21:16.135Z,0.80
2018-12-17T15:23:45.795Z,0.80
2018-12-17T15:26:14.973Z,0.80
2018-12-17T15:28:44.170Z,0.80
2018-12-17T15:31:13.242Z,0.70
2018-12-17T15:33:42.436Z,0.70
2018-12-17T15:36:11.336Z,0.70
2018-12-17T15:38:40.427Z,0.70
2018-12-17T15:41:09.547Z,0.60
2018-12-17T15:43:38.723Z,0.60
2018-12-17T15:46:07.826Z,0.60
2018-12-17T15:48:36.916Z,0.50
2018-12-17T15:51:06.111Z,0.50
2018-12-17T15:53:35.721Z,0.50
2018-12-17T15:56:04.680Z,0.50
2018-12-17T15:58:33.581Z,0.50
2018-12-17T16:01:02.568Z,0.50
2018-12-17T16:03:31.496Z,0.50
2018-12-17T16:06:00.456Z,0.40
2018-12-17T16:08:29.417Z,0.30
2018-12-17T16:10:58.390Z,0.30
2018-12-17T16:13:27.368Z,0.40
2018-12-17T16:15:56.505Z,0.30
2018-12-17T16:18:25.593Z,0.30
2018-12-17T16:20:54.499Z,0.30
2018-12-17T16:23:23.579Z,0.30
2018-12-17T16:25:52.691Z,0.30
2018-12-17T16:28:22.191Z,0.20
2018-12-17T16:30:51.164Z,0.10
2018-12-17T16:33:20.162Z,0.10
2018-12-17T16:35:49.355Z,0.10
2018-12-17T16:38:18.454Z,0.10
2018-12-17T16:40:47.431Z,0.00
2018-12-17T16:43:16.523Z,0.00
2018-12-17T16:45:45.707Z,0.00
2018-12-17T16:48:14.783Z,0.10
2018-12-17T16:50:43.883Z,0.10
2018-12-17T16:53:12.985Z,0.10
2018-12-17T16:55:42.087Z,0.10
2018-12-17T16:58:11.172Z,0.10
2018-12-17T17:00:40.071Z,0.10
2018-12-17T17:03:09.171Z,0.10
2018-12-17T17:05:38.063Z,0.20
2018-12-17T17:08:07.175Z,0.20
2018-12-17T17:10:36.267Z,0.10
2018-12-17T17:13:05.509Z,0.20
2018-12-17T17:15:34.567Z,0.20
2018-12-17T17:18:03.655Z,0.20
2018-12-17T17:20:32.552Z,0.30
2018-12-17T17:23:01.515Z,0.30
2018-12-17T17:25:30.494Z,0.30
2018-12-17T17:27:59.567Z,0.40
2018-12-17T17:30:28.771Z,0.40
2018-12-17T17:32:57.671Z,0.40
2018-12-17T17:35:26.669Z,0.40
2018-12-17T17:37:55.624Z,0.40
2018-12-17T17:40:24.735Z,0.50
2018-12-17T17:42:53.835Z,0.50
2018-12-17T17:45:22.971Z,0.50
2018-12-17T17:47:51.940Z,0.50
2018-12-17T17:50:21.037Z,0.50
2018-12-17T17:52:50.212Z,0.50
2018-12-17T17:55:19.187Z,0.50
2018-12-17T17:57:48.283Z,0.50
2018-12-17T18:00:17.371Z,0.60
2018-12-17T18:02:46.663Z,0.60
2018-12-17T18:05:15.831Z,0.60
2018-12-17T18:07:44.916Z,0.60
2018-12-17T18:10:14.008Z,0.60
2018-12-17T18:12:42.972Z,0.60
2018-12-17T18:15:11.944Z,0.60
2018-12-17T18:17:40.911Z,0.60
2018-12-17T18:20:09.852Z,0.60
2018-12-17T18:22:38.754Z,0.60
2018-12-17T18:25:07.741Z,0.70
2018-12-17T18:27:36.831Z,0.70
2018-12-17T18:30:06.183Z,0.70
2018-12-17T18:32:35.169Z,0.80
2018-12-17T18:35:04.337Z,0.80
2018-12-17T18:37:33.319Z,0.80
2018-12-17T18:40:02.414Z,0.80
2018-12-17T18:42:31.488Z,0.80
2018-12-17T18:45:00.455Z,0.80
2018-12-17T18:47:29.423Z,0.90
2018-12-17T18:49:58.711Z,0.90
2018-12-17T18:52:27.696Z,0.90
2018-12-17T18:54:56.594Z,0.90
2018-12-17T18:57:25.569Z,0.90
2018-12-17T18:59:54.524Z,0.90
2018-12-17T19:02:23.495Z,1.00
2018-12-17T19:04:52.473Z,1.00
2018-12-17T19:07:21.567Z,1.00
2018-12-17T19:09:50.541Z,1.00
2018-12-17T19:12:19.692Z,1.00
2018-12-17T19:14:48.803Z,1.10
2018-12-17T19:17:17.959Z,1.10
2018-12-17T19:19:47.064Z,1.10
2018-12-17T19:22:16.043Z,1.20
2018-12-17T19:24:45.243Z,1.10
2018-12-17T19:27:14.459Z,1.20
2018-12-17T19:29:43.475Z,1.20
2018-12-17T19:32:12.371Z,1.20
2018-12-17T19:34:41.263Z,1.20
2018-12-17T19:37:10.171Z,1.20
2018-12-17T19:39:39.067Z,1.30
2018-12-17T19:42:08.058Z,1.30
2018-12-17T19:44:37.031Z,1.30
2018-12-17T19:47:06.095Z,1.30
2018-12-17T19:49:34.998Z,1.30
2018-12-17T19:52:03.963Z,1.30
2018-12-17T19:54:33.067Z,1.40
2018-12-17T19:57:02.036Z,1.30
2018-12-17T19:59:31.136Z,1.40
2018-12-17T20:02:00.250Z,1.40
2018-12-17T20:04:29.439Z,1.40
2018-12-17T20:06:58.431Z,1.40
2018-12-17T20:09:27.391Z,1.40
2018-12-17T20:11:56.449Z,1.50
2018-12-17T20:14:25.661Z,1.50
2018-12-17T20:16:54.710Z,1.50
2018-12-17T20:19:23.695Z,1.40
2018-12-17T20:21:52.789Z,1.50
2018-12-17T20:24:21.903Z,1.40
2018-12-17T20:26:50.863Z,1.50
2018-12-17T20:29:19.951Z,1.50
2018-12-17T20:31:48.969Z,1.40
2018-12-17T20:34:18.394Z,1.40
2018-12-17T20:36:47.291Z,1.50
2018-12-17T20:39:16.279Z,1.50
2018-12-17T20:41:45.243Z,1.50
2018-12-17T20:44:14.333Z,1.50
2018-12-17T20:46:43.432Z,1.50
2018-12-17T20:49:12.524Z,1.50
2018-12-17T20:51:41.524Z,1.50
2018-12-17T20:54:10.624Z,1.50
2018-12-17T20:56:39.715Z,1.50
2018-12-17T20:59:08.691Z,1.40
2018-12-17T21:01:37.799Z,1.40
2018-12-17T21:04:06.770Z,1.50
2018-12-17T21:06:35.963Z,1.40
2018-12-17T21:09:07.259Z,1.40
2018-12-17T21:11:36.227Z,1.40
2018-12-17T21:14:05.311Z,1.40
2018-12-17T21:16:34.295Z,1.40
2018-12-17T21:19:03.208Z,1.40
2018-12-17T21:21:32.262Z,1.40
2018-12-17T21:24:01.223Z,1.40
2018-12-17T21:26:30.135Z,1.40
2018-12-17T21:28:59.122Z,1.40
2018-12-17T21:31:28.016Z,1.40
2018-12-17T21:33:56.995Z,1.30
2018-12-17T21:36:26.191Z,1.30
2018-12-17T21:38:55.496Z,1.30
2018-12-17T21:41:24.472Z,1.40
2018-12-17T21:43:53.663Z,1.30
2018-12-17T21:46:22.764Z,1.30
2018-12-17T21:48:51.683Z,1.30
2018-12-17T21:51:20.652Z,1.30
2018-12-17T21:53:49.543Z,1.30
2018-12-17T21:56:18.459Z,1.30
2018-12-17T21:58:47.511Z,1.30
2018-12-17T22:01:16.481Z,1.30
2018-12-17T22:03:45.448Z,1.20
2018-12-17T22:06:14.544Z,1.30
2018-12-17T22:08:43.740Z,1.30
2018-12-17T22:11:12.706Z,1.30
2018-12-17T22:13:41.686Z,1.30
2018-12-17T22:16:10.860Z,1.30
2018-12-17T22:18:39.780Z,1.30
2018-12-17T22:21:08.768Z,1.30
2018-12-17T22:23:37.724Z,1.30
2018-12-17T22:26:06.703Z,1.30
2018-12-17T22:28:35.679Z,1.30
2018-12-17T22:31:04.587Z,1.30
2018-12-17T22:33:33.483Z,1.30
2018-12-17T22:36:02.383Z,1.30
2018-12-17T22:38:31.373Z,1.30
2018-12-17T22:41:00.263Z,1.40
2018-12-17T22:43:29.371Z,1.30
2018-12-17T22:45:58.451Z,1.40
2018-12-17T22:48:27.408Z,1.40
2018-12-17T22:50:56.379Z,1.40
2018-12-17T22:53:25.339Z,1.30
2018-12-17T22:55:54.324Z,1.40
2018-12-17T22:58:24.804Z,1.30
2018-12-17T23:00:54.104Z,1.40
2018-12-17T23:03:26.209Z,1.40
2018-12-17T23:05:54.391Z,1.40
2018-12-17T23:08:23.359Z,1.40
2018-12-17T23:11:04.064Z,1.50
2018-12-17T23:13:44.871Z,1.40
2018-12-17T23:16:25.609Z,1.40
2018-12-17T23:18:54.184Z,1.40
2018-12-17T23:21:23.254Z,1.40
2018-12-17T23:23:52.206Z,1.40
2018-12-17T23:26:21.263Z,1.40
2018-12-17T23:28:50.227Z,1.40
2018-12-17T23:31:19.199Z,1.30
2018-12-17T23:33:48.291Z,1.40
2018-12-17T23:36:18.007Z,1.40
2018-12-17T23:38:47.096Z,1.40
2018-12-17T23:41:16.079Z,1.40
2018-12-17T23:43:45.079Z,1.40
2018-12-17T23:46:14.007Z,1.50
2018-12-17T23:48:42.983Z,1.40
2018-12-17T23:51:13.067Z,1.50
2018-12-17T23:53:42.128Z,1.50
2018-12-17T23:56:11.207Z,1.40
2018-12-17T23:58:40.403Z,1.50
